createdAt,value
2023-02-12T00:00:16.681Z,3.97
2023-02-12T00:03:00.633Z,3.60
2023-02-12T00:05:43.211Z,3.45
2023-02-12T00:08:25.977Z,3.60
2023-02-12T00:11:09.528Z,3.30
2023-02-12T00:13:52.620Z,3.17
2023-02-12T00:16:35.186Z,3.05
2023-02-12T00:19:19.150Z,3.17
2023-02-12T00:22:01.762Z,3.20
2023-02-12T00:24:44.317Z,3.13
2023-02-12T00:27:26.975Z,2.95
2023-02-12T00:30:09.829Z,3.13
2023-02-12T00:32:52.611Z,3.50
2023-02-12T00:35:37.871Z,3.28
2023-02-12T00:38:20.504Z,3.25
2023-02-12T00:41:03.356Z,3.20
2023-02-12T00:43:46.694Z,3.25
2023-02-12T00:46:29.418Z,3.42
2023-02-12T00:49:12.142Z,3.55
2023-02-12T00:51:56.096Z,3.50
2023-02-12T00:54:38.851Z,3.30
2023-02-12T00:57:21.417Z,3.17
2023-02-12T01:00:05.793Z,3.05
2023-02-12T01:02:48.361Z,3.10
2023-02-12T01:05:31.060Z,2.47
2023-02-12T01:08:16.135Z,3.00
2023-02-12T01:10:59.618Z,2.97
2023-02-12T01:13:42.152Z,2.33
2023-02-12T01:16:25.679Z,2.22
2023-02-12T01:19:08.488Z,2.03
2023-02-12T01:21:51.021Z,1.55
2023-02-12T01:24:34.944Z,1.52
2023-02-12T01:27:17.795Z,1.63
2023-02-12T01:30:00.423Z,1.70
2023-02-12T01:32:43.054Z,1.80
2023-02-12T01:35:26.797Z,1.75
2023-02-12T01:38:09.347Z,1.90
2023-02-12T01:40:53.326Z,2.42
2023-02-12T01:43:36.430Z,2.15
2023-02-12T01:46:20.169Z,2.00
2023-02-12T01:49:03.945Z,1.95
2023-02-12T01:51:47.413Z,1.95
2023-02-12T01:54:30.218Z,2.70
2023-02-12T01:57:15.331Z,2.70
2023-02-12T02:00:00.262Z,2.70
2023-02-12T02:02:43.950Z,3.03
2023-02-12T02:05:29.432Z,3.13
2023-02-12T02:08:12.126Z,2.95
2023-02-12T02:10:54.735Z,3.42
2023-02-12T02:13:56.079Z,3.58
2023-02-12T02:16:39.845Z,3.30
2023-02-12T02:19:30.248Z,3.38
2023-02-12T02:22:19.364Z,3.60
2023-02-12T02:25:25.968Z,3.70
2023-02-12T02:28:15.863Z,3.72
2023-02-12T02:31:01.391Z,3.85
2023-02-12T02:33:49.744Z,3.72
2023-02-12T02:36:54.124Z,3.97
2023-02-12T02:39:44.524Z,4.45
2023-02-12T02:42:30.066Z,4.32
2023-02-12T02:45:14.505Z,4.07
2023-02-12T02:48:01.133Z,4.53
2023-02-12T02:50:47.176Z,4.40
2023-02-12T02:53:32.161Z,4.85
2023-02-12T02:56:16.209Z,4.75
2023-02-12T02:59:00.422Z,4.13
2023-02-12T03:01:45.585Z,4.22
2023-02-12T03:04:32.461Z,4.40
2023-02-12T03:07:18.194Z,4.63
2023-02-12T03:10:03.095Z,4.05
2023-02-12T03:12:47.586Z,4.68
2023-02-12T03:15:33.672Z,4.13
2023-02-12T03:18:19.020Z,3.90
2023-02-12T03:21:05.636Z,3.50
2023-02-12T03:23:50.465Z,3.90
2023-02-12T03:26:38.925Z,3.63
2023-02-12T03:29:21.514Z,3.50
2023-02-12T03:32:12.743Z,3.10
2023-02-12T03:35:01.636Z,3.72
2023-02-12T03:37:49.146Z,3.60
2023-02-12T03:40:33.945Z,3.53
2023-02-12T03:43:20.755Z,3.25
2023-02-12T03:46:04.992Z,2.85
2023-02-12T03:48:53.016Z,2.70
2023-02-12T03:51:36.823Z,3.03
2023-02-12T03:54:22.431Z,3.00
2023-02-12T03:57:07.792Z,2.55
2023-02-12T03:59:51.044Z,2.00
2023-02-12T04:02:34.922Z,1.95
2023-02-12T04:05:18.712Z,2.05
2023-02-12T04:08:01.781Z,1.95
2023-02-12T04:10:54.125Z,2.15
2023-02-12T04:13:42.705Z,2.25
2023-02-12T04:16:30.117Z,2.13
2023-02-12T04:19:16.080Z,2.25
2023-02-12T04:22:06.530Z,2.10
2023-02-12T04:24:51.948Z,2.40
2023-02-12T04:27:40.223Z,2.63
2023-02-12T04:30:24.822Z,2.45
2023-02-12T04:33:08.996Z,2.50
2023-02-12T04:35:53.467Z,2.42
2023-02-12T04:38:38.228Z,2.53
2023-02-12T04:41:21.016Z,2.75
2023-02-12T04:44:16.002Z,3.00
2023-02-12T04:46:58.709Z,3.00
2023-02-12T04:49:41.585Z,2.83
2023-02-12T04:52:24.159Z,2.47
2023-02-12T04:55:07.190Z,2.53
2023-02-12T04:57:49.811Z,2.60
2023-02-12T05:00:33.827Z,3.08
2023-02-12T05:03:16.420Z,2.60
2023-02-12T05:06:03.067Z,3.20
2023-02-12T05:08:45.651Z,3.22
2023-02-12T05:11:28.343Z,3.20
2023-02-12T05:14:10.926Z,3.38
2023-02-12T05:16:54.839Z,3.50
2023-02-12T05:19:37.414Z,3.17
2023-02-12T05:22:20.036Z,3.42
2023-02-12T05:25:02.606Z,3.50
2023-02-12T05:27:45.185Z,3.28
2023-02-12T05:30:27.749Z,3.50
2023-02-12T05:33:11.691Z,3.10
2023-02-12T05:35:55.560Z,2.95
2023-02-12T05:38:38.336Z,3.25
2023-02-12T05:41:21.927Z,3.15
2023-02-12T05:44:04.883Z,3.58
2023-02-12T05:46:47.551Z,3.05
2023-02-12T05:49:31.576Z,3.33
2023-02-12T05:52:14.251Z,3.15
2023-02-12T05:54:56.807Z,3.35
2023-02-12T05:57:39.465Z,3.10
2023-02-12T06:00:22.523Z,3.20
2023-02-12T06:03:05.200Z,3.50
2023-02-12T06:05:52.807Z,3.78
2023-02-12T06:08:35.449Z,4.25
2023-02-12T06:11:19.290Z,3.67
2023-02-12T06:14:02.910Z,4.00
2023-02-12T06:16:45.774Z,3.60
2023-02-12T06:19:28.676Z,3.75
2023-02-12T06:22:12.575Z,3.92
2023-02-12T06:24:55.193Z,4.30
2023-02-12T06:27:37.786Z,4.20
2023-02-12T06:30:20.561Z,4.55
2023-02-12T06:33:03.120Z,4.00
2023-02-12T06:35:45.863Z,4.53
2023-02-12T06:38:29.821Z,5.00
2023-02-12T06:41:12.445Z,4.68
2023-02-12T06:43:55.215Z,5.13
2023-02-12T06:46:37.867Z,4.80
2023-02-12T06:49:20.480Z,4.82
2023-02-12T06:52:03.628Z,5.38
2023-02-12T06:54:47.687Z,5.10
2023-02-12T06:57:30.604Z,5.72
2023-02-12T07:00:13.567Z,5.72
2023-02-12T07:02:56.222Z,5.32
2023-02-12T07:05:40.576Z,5.20
2023-02-12T07:08:23.209Z,5.15
2023-02-12T07:11:07.535Z,5.60
2023-02-12T07:13:50.102Z,5.93
2023-02-12T07:16:32.791Z,5.45
2023-02-12T07:19:17.865Z,5.43
2023-02-12T07:22:00.452Z,5.60
2023-02-12T07:24:43.572Z,6.07
2023-02-12T07:27:27.601Z,6.20
2023-02-12T07:30:10.614Z,5.85
2023-02-12T07:32:53.172Z,5.95
2023-02-12T07:35:35.797Z,6.32
2023-02-12T07:38:18.385Z,5.70
2023-02-12T07:41:09.490Z,5.80
2023-02-12T07:43:56.457Z,6.03
2023-02-12T07:46:40.215Z,6.22
2023-02-12T07:49:23.100Z,6.03
2023-02-12T07:52:05.697Z,6.68
2023-02-12T07:54:48.398Z,6.55
2023-02-12T07:57:31.036Z,6.35
2023-02-12T08:00:16.009Z,6.80
2023-02-12T08:02:58.603Z,6.35
2023-02-12T08:05:41.203Z,6.93
2023-02-12T08:08:23.825Z,6.25
2023-02-12T08:11:07.269Z,6.82
2023-02-12T08:13:50.193Z,6.80
2023-02-12T08:16:38.120Z,6.50
2023-02-12T08:19:24.957Z,6.63
2023-02-12T08:22:09.042Z,6.80
2023-02-12T08:24:51.587Z,6.88
2023-02-12T08:27:34.193Z,6.97
2023-02-12T08:30:16.913Z,7.40
2023-02-12T08:33:00.838Z,7.65
2023-02-12T08:35:43.461Z,6.88
2023-02-12T08:38:26.063Z,7.00
2023-02-12T08:41:10.072Z,7.25
2023-02-12T08:43:54.076Z,7.20
2023-02-12T08:46:37.250Z,6.53
2023-02-12T08:49:22.240Z,6.50
2023-02-12T08:52:04.980Z,6.88
2023-02-12T08:54:47.605Z,6.78
2023-02-12T08:57:30.219Z,6.95
2023-02-12T09:00:13.147Z,6.85
2023-02-12T09:02:55.802Z,6.65
2023-02-12T09:05:41.445Z,6.80
2023-02-12T09:08:24.154Z,6.97
2023-02-12T09:11:07.167Z,7.00
2023-02-12T09:13:49.789Z,7.05
2023-02-12T09:16:33.404Z,7.00
2023-02-12T09:19:16.438Z,6.47
2023-02-12T09:22:00.394Z,6.22
2023-02-12T09:24:42.996Z,6.70
2023-02-12T09:27:25.657Z,6.22
2023-02-12T09:30:09.114Z,6.18
2023-02-12T09:32:51.717Z,6.30
2023-02-12T09:35:35.482Z,6.45
2023-02-12T09:38:19.473Z,6.10
2023-02-12T09:41:12.704Z,5.95
2023-02-12T09:43:58.377Z,6.60
2023-02-12T09:46:43.927Z,5.45
2023-02-12T09:49:34.320Z,6.40
2023-02-12T09:52:18.165Z,6.25
2023-02-12T09:55:02.628Z,5.50
2023-02-12T09:57:45.858Z,5.00
2023-02-12T10:00:31.110Z,5.05
2023-02-12T10:03:14.848Z,5.40
2023-02-12T10:05:59.835Z,5.38
2023-02-12T10:08:49.776Z,5.40
2023-02-12T10:11:40.442Z,5.38
2023-02-12T10:14:30.945Z,5.22
2023-02-12T10:17:18.015Z,5.05
2023-02-12T10:20:21.629Z,5.50
2023-02-12T10:23:09.400Z,5.10
2023-02-12T10:25:54.754Z,5.10
2023-02-12T10:28:40.738Z,5.55
2023-02-12T10:31:29.251Z,5.20
2023-02-12T10:34:16.549Z,5.93
2023-02-12T10:37:03.358Z,6.22
2023-02-12T10:39:49.733Z,5.53
2023-02-12T10:42:37.637Z,5.75
2023-02-12T10:45:22.424Z,5.95
2023-02-12T10:48:06.849Z,6.07
2023-02-12T10:50:57.566Z,5.90
2023-02-12T10:53:41.425Z,6.00
2023-02-12T10:56:25.583Z,6.20
2023-02-12T10:59:23.428Z,5.53
2023-02-12T11:02:17.633Z,4.80
2023-02-12T11:05:01.302Z,5.10
2023-02-12T11:07:47.693Z,5.50
2023-02-12T11:10:31.860Z,5.55
2023-02-12T11:13:23.342Z,5.63
2023-02-12T11:16:06.399Z,5.00
2023-02-12T11:18:58.381Z,5.07
2023-02-12T11:21:41.026Z,5.15
2023-02-12T11:24:29.890Z,5.82
2023-02-12T11:27:13.944Z,6.00
2023-02-12T11:30:13.257Z,5.72
2023-02-12T11:32:56.034Z,5.80
2023-02-12T11:35:49.202Z,6.28
2023-02-12T11:38:33.359Z,5.50
2023-02-12T11:41:23.071Z,5.38
2023-02-12T11:44:11.129Z,5.55
2023-02-12T11:46:56.470Z,4.85
2023-02-12T11:49:41.369Z,5.50
2023-02-12T11:52:28.410Z,4.97
2023-02-12T11:55:23.191Z,4.70
2023-02-12T11:58:06.526Z,4.25
2023-02-12T12:00:52.139Z,5.45
2023-02-12T12:03:38.336Z,4.90
2023-02-12T12:06:24.596Z,4.60
2023-02-12T12:09:14.072Z,4.40
2023-02-12T12:12:01.022Z,4.18
2023-02-12T12:15:04.648Z,4.47
2023-02-12T12:18:07.694Z,4.50
2023-02-12T12:20:53.558Z,4.00
2023-02-12T12:23:38.161Z,3.90
2023-02-12T12:26:24.841Z,3.50
2023-02-12T12:29:12.419Z,2.97
2023-02-12T12:31:57.354Z,2.85
2023-02-12T12:34:40.014Z,2.92
2023-02-12T12:37:32.200Z,2.28
2023-02-12T12:40:19.993Z,2.55
2023-02-12T12:43:09.518Z,2.28
2023-02-12T12:45:59.696Z,1.83
2023-02-12T12:48:53.971Z,2.00
2023-02-12T12:51:44.171Z,1.60
2023-02-12T12:54:35.255Z,1.52
2023-02-12T12:57:21.958Z,1.48
2023-02-12T13:00:14.698Z,1.17
2023-02-12T13:03:11.678Z,1.40
2023-02-12T13:06:09.021Z,1.52
2023-02-12T13:09:04.458Z,1.27
2023-02-12T13:11:51.265Z,1.30
2023-02-12T13:14:38.648Z,1.40
2023-02-12T13:17:24.656Z,1.52
2023-02-12T13:20:09.688Z,1.55
2023-02-12T13:22:56.288Z,1.77
2023-02-12T13:25:42.624Z,1.98
2023-02-12T13:28:27.200Z,1.50
2023-02-12T13:31:32.098Z,1.73
2023-02-12T13:34:17.555Z,1.80
2023-02-12T13:37:01.619Z,1.60
2023-02-12T13:39:46.451Z,1.83
2023-02-12T13:42:40.240Z,1.80
2023-02-12T13:45:28.165Z,1.80
2023-02-12T13:48:21.673Z,1.67
2023-02-12T13:51:11.857Z,2.05
2023-02-12T13:54:00.374Z,1.95
2023-02-12T13:56:44.372Z,1.80
2023-02-12T13:59:44.046Z,1.98
2023-02-12T14:02:42.602Z,2.33
2023-02-12T14:05:27.798Z,2.40
2023-02-12T14:08:25.364Z,2.30
2023-02-12T14:14:03.183Z,2.58
2023-02-12T14:16:46.650Z,2.92
2023-02-12T14:19:39.199Z,2.70
2023-02-12T14:22:36.654Z,2.67
2023-02-12T14:25:33.573Z,2.65
2023-02-12T14:28:25.583Z,2.90
2023-02-12T14:31:38.604Z,2.63
2023-02-12T14:34:38.491Z,2.50
2023-02-12T14:37:38.339Z,2.42
2023-02-12T14:40:42.867Z,2.30
2023-02-12T14:43:27.630Z,2.00
2023-02-12T14:46:29.130Z,1.98
2023-02-12T14:49:20.103Z,1.42
2023-02-12T14:52:04.931Z,1.65
2023-02-12T14:54:48.785Z,1.85
2023-02-12T14:57:34.375Z,1.63
2023-02-12T15:00:22.159Z,1.77
2023-02-12T15:03:14.998Z,1.63
2023-02-12T15:06:05.459Z,1.42
2023-02-12T15:08:51.742Z,1.08
2023-02-12T15:11:39.922Z,1.20
2023-02-12T15:14:25.637Z,1.10
2023-02-12T15:17:10.075Z,1.17
2023-02-12T15:19:57.253Z,1.10
2023-02-12T15:22:40.701Z,1.10
2023-02-12T15:25:24.632Z,1.20
2023-02-12T15:28:12.885Z,1.10
2023-02-12T15:30:57.601Z,1.20
2023-02-12T15:33:41.797Z,1.00
2023-02-12T15:36:25.449Z,0.95
2023-02-12T15:39:09.922Z,1.05
2023-02-12T15:41:52.874Z,0.90
2023-02-12T15:44:37.591Z,1.10
2023-02-12T15:47:26.170Z,1.25
2023-02-12T15:50:12.740Z,1.10
2023-02-12T15:52:56.569Z,1.00
2023-02-12T15:55:41.085Z,1.20
2023-02-12T15:58:25.386Z,1.30
2023-02-12T16:01:08.346Z,1.00
2023-02-12T16:03:52.262Z,1.10
2023-02-12T16:06:37.593Z,1.30
2023-02-12T16:09:30.334Z,1.80
2023-02-12T16:12:13.997Z,1.83
2023-02-12T16:14:57.535Z,1.70
2023-02-12T16:17:47.705Z,1.92
2023-02-12T16:20:31.251Z,2.33
2023-02-12T16:23:15.265Z,2.65
2023-02-12T16:25:58.224Z,2.35
2023-02-12T16:28:41.148Z,2.85
2023-02-12T16:31:25.657Z,3.00
2023-02-12T16:34:27.781Z,2.72
2023-02-12T16:37:41.195Z,2.65
2023-02-12T16:40:32.766Z,3.28
2023-02-12T16:43:25.716Z,3.08
2023-02-12T16:46:09.042Z,2.85
2023-02-12T16:48:52.942Z,3.15
2023-02-12T16:51:36.516Z,3.15
2023-02-12T16:54:26.993Z,3.53
2023-02-12T16:57:12.414Z,3.22
2023-02-12T16:59:55.090Z,3.10
2023-02-12T17:02:37.956Z,3.20
2023-02-12T17:05:22.997Z,3.63
2023-02-12T17:08:11.094Z,3.25
2023-02-12T17:10:53.954Z,4.10
2023-02-12T17:13:37.967Z,4.00
2023-02-12T17:16:30.205Z,4.10
2023-02-12T17:19:13.740Z,3.75
2023-02-12T17:21:56.488Z,4.10
2023-02-12T17:24:39.208Z,3.45
2023-02-12T17:27:21.856Z,4.80
2023-02-12T17:30:07.124Z,3.70
2023-02-12T17:32:51.277Z,4.03
2023-02-12T17:35:34.084Z,3.78
2023-02-12T17:38:16.714Z,4.20
2023-02-12T17:40:59.552Z,4.18
2023-02-12T17:43:42.316Z,4.55
2023-02-12T17:46:27.513Z,4.32
2023-02-12T17:49:10.366Z,4.45
2023-02-12T17:51:53.002Z,4.82
2023-02-12T17:54:35.735Z,4.55
2023-02-12T17:57:18.514Z,4.38
2023-02-12T18:00:01.262Z,3.92
2023-02-12T18:02:55.155Z,4.32
2023-02-12T18:05:41.166Z,4.57
2023-02-12T18:08:23.824Z,4.97
2023-02-12T18:11:08.798Z,4.53
2023-02-12T18:13:53.335Z,4.90
2023-02-12T18:16:36.490Z,4.60
2023-02-12T18:19:20.590Z,4.32
2023-02-12T18:22:03.287Z,4.88
2023-02-12T18:24:46.060Z,4.35
2023-02-12T18:27:28.733Z,5.20
2023-02-12T18:30:11.840Z,4.30
2023-02-12T18:32:54.480Z,4.30
2023-02-12T18:35:41.630Z,4.55
2023-02-12T18:38:24.304Z,4.78
2023-02-12T18:41:07.531Z,4.63
2023-02-12T18:43:50.127Z,4.30
2023-02-12T18:46:33.017Z,4.43
2023-02-12T18:49:16.576Z,4.95
2023-02-12T18:52:01.911Z,4.80
2023-02-12T18:54:45.211Z,5.47
2023-02-12T18:57:28.011Z,4.45
2023-02-12T19:00:10.947Z,4.45
2023-02-12T19:02:53.594Z,5.68
2023-02-12T19:05:36.209Z,4.97
2023-02-12T19:08:20.260Z,4.90
2023-02-12T19:11:03.006Z,4.93
2023-02-12T19:13:45.623Z,5.10
2023-02-12T19:16:28.500Z,4.90
2023-02-12T19:19:11.287Z,5.20
2023-02-12T19:21:53.964Z,5.30
2023-02-12T19:24:46.612Z,5.25
2023-02-12T19:27:30.589Z,5.10
2023-02-12T19:30:13.634Z,5.10
2023-02-12T19:32:56.275Z,4.85
2023-02-12T19:35:38.894Z,4.30
2023-02-12T19:38:21.498Z,5.25
2023-02-12T19:41:05.828Z,4.85
2023-02-12T19:43:48.722Z,4.10
2023-02-12T19:46:31.801Z,5.00
2023-02-12T19:49:15.592Z,4.82
2023-02-12T19:51:58.368Z,4.88
2023-02-12T19:54:40.990Z,5.28
2023-02-12T19:57:25.352Z,4.63
2023-02-12T20:00:08.754Z,4.70
2023-02-12T20:02:51.462Z,5.45
2023-02-12T20:05:34.099Z,4.80
2023-02-12T20:08:17.037Z,4.70
2023-02-12T20:10:59.797Z,5.30
2023-02-12T20:13:44.171Z,4.82
2023-02-12T20:16:31.073Z,5.03
2023-02-12T20:19:15.358Z,4.72
2023-02-12T20:21:58.358Z,4.72
2023-02-12T20:24:41.045Z,4.38
2023-02-12T20:27:23.881Z,5.03
2023-02-12T20:30:09.247Z,5.10
2023-02-12T20:32:51.951Z,5.18
2023-02-12T20:35:34.748Z,4.90
2023-02-12T20:38:17.656Z,5.00
2023-02-12T20:41:04.034Z,5.47
2023-02-12T20:43:46.878Z,5.75
2023-02-12T20:46:30.978Z,5.35
2023-02-12T20:49:13.959Z,5.78
2023-02-12T20:51:56.584Z,5.93
2023-02-12T20:54:39.243Z,5.65
2023-02-12T20:57:22.673Z,6.25
2023-02-12T21:00:06.093Z,6.25
2023-02-12T21:02:50.696Z,5.53
2023-02-12T21:05:33.984Z,5.97
2023-02-12T21:08:16.931Z,5.80
2023-02-12T21:11:00.490Z,6.20
2023-02-12T21:13:53.673Z,6.38
2023-02-12T21:16:45.482Z,6.65
2023-02-12T21:19:29.574Z,5.72
2023-02-12T21:22:12.206Z,6.72
2023-02-12T21:24:54.828Z,6.60
2023-02-12T21:27:40.601Z,6.35
2023-02-12T21:30:24.010Z,6.65
2023-02-12T21:33:06.931Z,6.13
2023-02-12T21:35:51.140Z,7.13
2023-02-12T21:38:34.665Z,6.75
2023-02-12T21:41:18.155Z,7.05
2023-02-12T21:44:01.945Z,7.15
2023-02-12T21:46:45.067Z,6.40
2023-02-12T21:49:28.362Z,6.97
2023-02-12T21:52:12.690Z,6.53
2023-02-12T21:54:57.051Z,6.70
2023-02-12T21:57:39.844Z,6.43
2023-02-12T22:00:22.717Z,7.15
2023-02-12T22:03:05.367Z,7.15
2023-02-12T22:05:48.046Z,7.20
2023-02-12T22:08:32.041Z,6.68
2023-02-12T22:11:15.836Z,6.47
2023-02-12T22:13:58.429Z,6.60
2023-02-12T22:16:41.102Z,7.40
2023-02-12T22:19:23.992Z,7.50
2023-02-12T22:22:06.599Z,7.13
2023-02-12T22:24:50.533Z,6.97
2023-02-12T22:27:33.336Z,6.90
2023-02-12T22:30:16.609Z,7.25
2023-02-12T22:32:59.260Z,6.57
2023-02-12T22:35:41.828Z,6.38
2023-02-12T22:38:24.497Z,6.38
2023-02-12T22:41:09.232Z,6.70
2023-02-12T22:43:52.287Z,6.35
2023-02-12T22:46:36.136Z,7.22
2023-02-12T22:49:18.924Z,6.10
2023-02-12T22:52:01.559Z,6.43
2023-02-12T22:54:44.208Z,7.07
2023-02-12T22:57:28.231Z,5.80
2023-02-12T23:00:11.301Z,6.90
2023-02-12T23:02:53.945Z,6.20
2023-02-12T23:05:36.926Z,6.25
2023-02-12T23:08:19.504Z,6.45
2023-02-12T23:11:02.123Z,6.00
2023-02-12T23:13:46.104Z,6.28
2023-02-12T23:16:28.962Z,6.63
2023-02-12T23:19:12.133Z,5.75
2023-02-12T23:21:54.690Z,6.05
2023-02-12T23:24:37.409Z,5.95
2023-02-12T23:27:19.954Z,6.43
2023-02-12T23:30:04.306Z,6.30
2023-02-12T23:32:46.893Z,6.45
2023-02-12T23:35:29.618Z,6.78
2023-02-12T23:38:12.643Z,6.03
2023-02-12T23:40:55.568Z,6.85
2023-02-12T23:43:38.353Z,5.93
2023-02-12T23:46:22.308Z,6.05
2023-02-12T23:49:04.935Z,5.60
2023-02-12T23:51:47.524Z,6.32
2023-02-12T23:54:31.607Z,6.45
2023-02-12T23:57:14.162Z,6.07
2023-02-12T23:59:56.731Z,6.00
